Time;durP1;ratioP1;P1;durP2;ratioP2;P2;SDS_P1;SDS_P2;PMS_P1;PMS_P2;Temp;Humidity;BMP_temperature;BMP_pressure;BME280_temperature;BME280_humidity;BME280_pressure;Samples;Min_cycle;Max_cycle;Signal;HPM_P1;HPM_P2
2023/11/01 00:01:35;;;;;;;2.25;0.00;;;;;;;6.68;79.89;99445.13;6119203;23;20032;-70
2023/11/01 00:04:02;;;;;;;0.00;0.00;;;;;;;6.69;79.25;99444.25;6116217;23;20464;-70
2023/11/01 00:06:29;;;;;;;1.52;0.00;;;;;;;6.70;79.57;99441.63;6117271;23;20117;-69
2023/11/01 00:08:57;;;;;;;0.05;0.00;;;;;;;6.71;79.34;99447.66;6115159;23;20022;-70
2023/11/01 00:11:25;;;;;;;0.10;0.00;;;;;;;6.69;79.57;99439.91;6117215;23;20530;-70
2023/11/01 00:13:51;;;;;;;0.38;0.00;;;;;;;6.71;79.57;99439.88;6116632;23;20022;-70
2023/11/01 00:16:18;;;;;;;0.00;0.00;;;;;;;6.71;79.50;99448.50;6118300;23;20100;-70
2023/11/01 00:18:47;;;;;;;0.00;0.00;;;;;;;6.67;79.29;99440.84;6115984;23;20335;-70
2023/11/01 00:21:13;;;;;;;0.00;0.00;;;;;;;6.70;79.49;99449.41;6116786;23;20024;-70
2023/11/01 00:23:40;;;;;;;2.05;0.00;;;;;;;6.71;79.42;99455.44;6116840;23;20032;-72
2023/11/01 00:26:07;;;;;;;0.10;0.00;;;;;;;6.71;79.03;99460.63;6119142;23;20353;-72
2023/11/01 00:28:34;;;;;;;1.48;0.00;;;;;;;6.71;79.55;99463.22;6117370;23;20101;-72
2023/11/01 00:31:01;;;;;;;0.00;0.00;;;;;;;6.70;79.38;99466.72;6118901;23;20022;-72
2023/11/01 00:33:28;;;;;;;1.55;0.00;;;;;;;6.69;79.25;99465.03;6115066;23;20022;-72
2023/11/01 00:35:57;;;;;;;2.28;0.00;;;;;;;6.69;79.34;99462.44;6117112;23;20026;-72
2023/11/01 00:38:24;;;;;;;0.00;0.00;;;;;;;6.69;78.98;99465.03;6115607;23;20036;-72
2023/11/01 00:40:51;;;;;;;0.17;0.00;;;;;;;6.69;79.32;99467.63;6120704;23;20469;-72
2023/11/01 00:43:18;;;;;;;0.38;0.00;;;;;;;6.68;79.35;99466.75;6120375;23;20073;-72
2023/11/01 00:45:45;;;;;;;0.00;0.00;;;;;;;6.68;79.04;99466.75;6120863;23;20349;-72
2023/11/01 00:48:11;;;;;;;0.10;0.00;;;;;;;6.68;79.32;99468.50;6119612;23;20476;-71
2023/11/01 00:50:38;;;;;;;0.00;0.00;;;;;;;6.68;79.02;99468.50;6120769;23;20021;-72
2023/11/01 00:53:06;;;;;;;0.10;0.00;;;;;;;6.67;79.18;99471.97;6120783;23;20076;-72
2023/11/01 00:55:33;;;;;;;0.00;0.00;;;;;;;6.67;78.65;99474.56;6120002;23;20024;-73
2023/11/01 00:58:00;;;;;;;0.50;0.00;;;;;;;6.66;78.66;99478.03;6120696;23;20030;-72
2023/11/01 01:00:27;;;;;;;0.00;0.00;;;;;;;6.62;78.51;99471.22;6119558;23;20361;-73
2023/11/01 01:02:54;;;;;;;0.00;0.00;;;;;;;6.64;78.82;99479.84;6121045;23;20018;-72
2023/11/01 01:05:22;;;;;;;0.00;0.00;;;;;;;6.63;78.65;99476.41;6118164;23;20018;-72
2023/11/01 01:07:49;;;;;;;0.00;0.00;;;;;;;6.60;78.67;99473.00;6118635;23;20030;-72
2023/11/01 01:10:17;;;;;;;0.28;0.10;;;;;;;6.62;78.90;99479.88;6120403;23;20480;-72
2023/11/01 01:12:44;;;;;;;1.33;0.00;;;;;;;6.61;78.49;99483.34;6120397;23;20026;-71
2023/11/01 01:15:11;;;;;;;0.57;0.00;;;;;;;6.61;78.40;99485.09;6119496;23;20349;-71
2023/11/01 01:17:38;;;;;;;0.17;0.00;;;;;;;6.60;78.34;99481.63;6118081;23;20028;-71
2023/11/01 01:20:05;;;;;;;1.00;0.00;;;;;;;6.59;78.73;99481.69;6117089;23;20029;-71
2023/11/01 01:22:32;;;;;;;0.43;0.00;;;;;;;6.57;78.29;99473.06;6120714;23;20018;-72
2023/11/01 01:24:59;;;;;;;0.20;0.00;;;;;;;6.56;78.44;99480.00;6120618;23;20029;-71
2023/11/01 01:27:28;;;;;;;0.95;0.35;;;;;;;6.55;78.24;99487.84;6118886;23;20029;-72
2023/11/01 01:29:54;;;;;;;0.00;0.00;;;;;;;6.52;78.11;99489.59;6119726;23;20345;-71
2023/11/01 01:32:21;;;;;;;0.03;0.00;;;;;;;6.51;78.20;99495.66;6122339;23;20050;-76
2023/11/01 01:34:48;;;;;;;0.00;0.00;;;;;;;6.50;78.35;99496.56;6122289;23;20022;-76
2023/11/01 01:37:15;;;;;;;0.00;0.00;;;;;;;6.48;78.30;99498.34;6125913;23;20025;-77
2023/11/01 01:39:42;;;;;;;0.40;0.00;;;;;;;6.48;78.31;99505.25;6124127;23;20026;-76
2023/11/01 01:42:09;;;;;;;0.08;0.00;;;;;;;6.45;78.34;99501.00;6124058;23;20028;-76
2023/11/01 01:44:37;;;;;;;0.08;0.00;;;;;;;6.43;78.10;99510.56;6122578;23;20017;-75
2023/11/01 01:47:05;;;;;;;0.00;0.00;;;;;;;6.42;77.83;99514.03;6121423;23;20021;-76
2023/11/01 01:49:32;;;;;;;0.00;0.00;;;;;;;6.41;77.87;99514.09;6121961;23;20018;-76
2023/11/01 01:52:01;;;;;;;0.30;0.00;;;;;;;6.40;77.83;99512.34;6119512;23;20022;-77
2023/11/01 01:54:28;;;;;;;0.03;0.00;;;;;;;6.36;77.84;99521.94;6121958;23;20026;-76
2023/11/01 01:56:55;;;;;;;0.25;0.00;;;;;;;6.36;77.80;99521.94;6121389;23;20022;-76
2023/11/01 01:59:22;;;;;;;0.38;0.00;;;;;;;6.34;77.49;99518.53;6118189;23;20028;-76
2023/11/01 02:01:53;;;;;;;0.00;0.00;;;;;;;6.33;77.98;99521.16;6123965;23;20024;-77
2023/11/01 02:04:19;;;;;;;0.00;0.00;;;;;;;6.29;77.71;99531.63;6122592;23;20022;-76
2023/11/01 02:06:46;;;;;;;0.35;0.00;;;;;;;6.29;77.54;99534.22;6123192;23;20018;-76
2023/11/01 02:09:16;;;;;;;0.13;0.00;;;;;;;6.27;77.40;99540.31;6122047;23;20054;-76
2023/11/01 02:11:43;;;;;;;0.28;0.00;;;;;;;6.24;77.12;99540.38;6124631;23;20671;-76
2023/11/01 02:14:10;;;;;;;0.63;0.00;;;;;;;6.22;77.17;99537.78;6119625;23;20104;-77
2023/11/01 02:16:37;;;;;;;0.08;0.00;;;;;;;6.21;77.41;99537.84;6123156;23;20029;-76
2023/11/01 02:19:07;;;;;;;0.00;0.00;;;;;;;6.20;77.13;99541.31;6122901;23;20026;-76
2023/11/01 02:21:34;;;;;;;0.00;0.00;;;;;;;6.17;77.09;99552.59;6122923;23;20026;-71
2023/11/01 02:24:02;;;;;;;0.00;0.00;;;;;;;6.14;77.08;99555.25;6120330;23;20022;-70
2023/11/01 02:26:30;;;;;;;0.00;0.00;;;;;;;6.11;76.90;99550.13;6117276;23;20022;-70
2023/11/01 02:28:57;;;;;;;0.00;0.00;;;;;;;6.08;76.63;99551.03;6121444;23;20096;-70
2023/11/01 02:31:24;;;;;;;0.43;0.00;;;;;;;6.07;76.60;99549.34;6121488;23;20029;-70
2023/11/01 02:33:51;;;;;;;0.15;0.00;;;;;;;6.04;76.64;99554.59;6120865;23;20024;-70
2023/11/01 02:36:17;;;;;;;0.00;0.00;;;;;;;6.02;76.56;99558.94;6120769;23;20024;-70
2023/11/01 02:38:45;;;;;;;0.00;0.00;;;;;;;6.00;76.67;99565.88;6121227;23;20345;-70
2023/11/01 02:41:15;;;;;;;0.00;0.00;;;;;;;5.98;76.40;99564.22;6118279;23;20018;-70
2023/11/01 02:43:42;;;;;;;0.00;0.00;;;;;;;5.91;76.75;99558.25;6121627;23;20018;-74
2023/11/01 02:46:09;;;;;;;0.00;0.00;;;;;;;5.93;76.47;99569.50;6120146;23;20682;-73
2023/11/01 02:48:36;;;;;;;0.65;0.00;;;;;;;5.92;76.66;99572.94;6121300;23;20022;-73
2023/11/01 02:51:03;;;;;;;0.20;0.00;;;;;;;5.90;76.53;99572.09;6121147;23;20032;-73
2023/11/01 02:53:30;;;;;;;0.00;0.00;;;;;;;5.88;76.45;99578.19;6120135;23;20061;-73
2023/11/01 02:55:57;;;;;;;0.10;0.00;;;;;;;5.80;76.60;99568.81;6120907;23;20024;-74
2023/11/01 02:58:28;;;;;;;0.05;0.00;;;;;;;5.83;76.14;99575.69;6120910;23;20021;-73
2023/11/01 03:00:55;;;;;;;0.00;0.00;;;;;;;5.81;76.18;99577.47;6121710;23;20041;-73
2023/11/01 03:03:22;;;;;;;0.00;0.00;;;;;;;5.72;76.15;99568.13;6119627;23;20353;-73
2023/11/01 03:05:49;;;;;;;0.00;0.00;;;;;;;5.77;76.45;99586.16;6121254;23;20495;-73
2023/11/01 03:08:16;;;;;;;0.65;0.00;;;;;;;5.76;76.40;99592.22;6118892;23;20097;-73
2023/11/01 03:10:43;;;;;;;0.22;0.00;;;;;;;5.73;76.62;99593.16;6118380;23;20018;-72
2023/11/01 03:13:09;;;;;;;0.00;0.00;;;;;;;5.72;76.42;99590.56;6119277;23;20077;-73
2023/11/01 03:15:38;;;;;;;0.10;0.00;;;;;;;5.71;76.24;99588.88;6119977;23;20028;-72
2023/11/01 03:18:05;;;;;;;0.00;0.00;;;;;;;5.68;76.52;99591.50;6118501;23;20026;-73
2023/11/01 03:20:32;;;;;;;0.98;0.00;;;;;;;5.66;76.66;99588.94;6120082;23;20037;-73
2023/11/01 03:23:00;;;;;;;0.00;0.00;;;;;;;5.63;76.46;99600.22;6117808;23;20048;-73
2023/11/01 03:25:27;;;;;;;0.05;0.00;;;;;;;5.61;76.32;99602.00;6117008;23;20070;-78
2023/11/01 03:27:54;;;;;;;0.55;0.00;;;;;;;5.57;76.16;99600.31;6117443;23;20068;-73
2023/11/01 03:30:22;;;;;;;0.00;0.00;;;;;;;5.55;76.45;99611.56;6119901;23;20668;-74
2023/11/01 03:32:50;;;;;;;0.00;0.00;;;;;;;5.51;76.24;99603.00;6114465;23;20022;-70
2023/11/01 03:35:17;;;;;;;0.00;0.00;;;;;;;5.50;76.28;99603.91;6118498;23;20024;-70
2023/11/01 03:37:44;;;;;;;0.00;0.00;;;;;;;5.45;76.05;99597.94;6117937;23;20052;-70
2023/11/01 03:40:11;;;;;;;0.00;0.00;;;;;;;5.48;75.99;99609.97;6118329;23;20862;-70
2023/11/01 03:42:38;;;;;;;0.00;0.00;;;;;;;5.45;76.04;99604.84;6119469;23;20022;-70
2023/11/01 03:45:05;;;;;;;0.00;0.00;;;;;;;5.43;75.93;99602.28;6117321;23;20124;-70
2023/11/01 03:47:32;;;;;;;0.00;0.00;;;;;;;5.39;76.03;99596.31;6120459;23;20458;-70
2023/11/01 03:50:01;;;;;;;0.00;0.00;;;;;;;5.38;76.05;99604.13;6114512;23;20812;-70
2023/11/01 03:52:28;;;;;;;0.10;0.00;;;;;;;5.35;76.19;99612.78;6117737;23;20022;-74
2023/11/01 03:54:55;;;;;;;1.48;0.00;;;;;;;5.33;75.91;99619.72;6117962;23;20125;-74
2023/11/01 03:57:22;;;;;;;0.00;0.00;;;;;;;5.30;76.10;99621.50;6122371;23;20054;-74
2023/11/01 03:59:49;;;;;;;0.00;0.00;;;;;;;5.28;76.17;99618.06;6117219;23;20026;-75
2023/11/01 04:02:15;;;;;;;0.00;0.00;;;;;;;5.25;76.21;99626.75;6120249;23;20022;-74
2023/11/01 04:04:43;;;;;;;0.70;0.00;;;;;;;5.23;75.96;99632.81;6118670;23;20024;-74
2023/11/01 04:07:11;;;;;;;1.45;0.00;;;;;;;5.21;76.07;99631.97;6118371;23;20026;-75
2023/11/01 04:09:38;;;;;;;0.15;0.00;;;;;;;5.17;75.84;99629.44;6117939;23;20566;-74
2023/11/01 04:12:05;;;;;;;0.03;0.00;;;;;;;5.14;75.95;99629.47;6119769;23;20022;-74
2023/11/01 04:14:32;;;;;;;0.43;0.00;;;;;;;5.12;76.08;99636.44;6119238;23;20033;-73
2023/11/01 04:17:00;;;;;;;0.55;0.00;;;;;;;5.10;75.92;99629.56;6122779;23;20026;-74
2023/11/01 04:19:26;;;;;;;0.00;0.00;;;;;;;5.03;75.72;99628.78;6122013;23;20033;-74
2023/11/01 04:21:54;;;;;;;0.00;0.00;;;;;;;5.04;75.76;99635.69;6121347;23;20018;-74
2023/11/01 04:24:23;;;;;;;0.03;0.00;;;;;;;5.01;75.66;99640.91;6119921;23;20030;-74
2023/11/01 04:26:52;;;;;;;0.00;0.00;;;;;;;5.00;76.07;99649.53;6122451;23;20026;-75
2023/11/01 04:29:19;;;;;;;0.00;0.00;;;;;;;4.99;76.05;99642.66;6117930;23;20036;-74
2023/11/01 04:31:46;;;;;;;0.00;0.00;;;;;;;4.96;75.96;99647.88;6121769;23;20026;-74
2023/11/01 04:34:14;;;;;;;0.00;0.00;;;;;;;4.94;75.74;99650.47;6119982;23;20022;-74
2023/11/01 04:36:43;;;;;;;0.00;0.00;;;;;;;4.91;75.80;99655.69;6120681;23;20022;-74
2023/11/01 04:39:10;;;;;;;0.00;0.00;;;;;;;4.89;75.94;99651.41;6121537;23;20026;-75
2023/11/01 04:41:40;;;;;;;0.00;0.00;;;;;;;4.88;75.69;99658.31;6121406;23;20022;-74
2023/11/01 04:44:07;;;;;;;0.00;0.00;;;;;;;4.85;75.93;99657.50;6122776;23;20071;-74
2023/11/01 04:46:35;;;;;;;0.00;0.00;;;;;;;4.84;75.92;99664.41;6121297;23;20349;-75
2023/11/01 04:49:03;;;;;;;0.00;0.00;;;;;;;4.81;75.79;99661.88;6122009;23;20364;-75
2023/11/01 04:51:31;;;;;;;0.00;0.00;;;;;;;4.79;75.72;99668.78;6120859;23;20018;-74
2023/11/01 04:53:58;;;;;;;0.00;0.00;;;;;;;4.78;75.82;99676.56;6120989;23;20835;-75
2023/11/01 04:56:26;;;;;;;0.00;0.00;;;;;;;4.74;75.75;99668.00;6120263;23;20062;-75
2023/11/01 04:58:55;;;;;;;0.00;0.00;;;;;;;4.73;75.84;99674.91;6120761;23;20026;-75
2023/11/01 05:01:21;;;;;;;0.00;0.00;;;;;;;4.71;75.83;99674.06;6119692;23;20101;-75
2023/11/01 05:03:48;;;;;;;0.00;0.00;;;;;;;4.68;75.86;99676.69;6122952;23;20018;-76
2023/11/01 05:06:15;;;;;;;0.03;0.00;;;;;;;4.66;76.36;99681.00;6121558;23;20017;-76
2023/11/01 05:08:42;;;;;;;1.35;0.00;;;;;;;4.62;75.83;99681.94;6123311;23;20361;-76
2023/11/01 05:11:09;;;;;;;0.00;0.00;;;;;;;4.63;75.56;99685.38;6119134;23;20018;-76
2023/11/01 05:13:35;;;;;;;0.00;0.00;;;;;;;4.60;75.87;99682.81;6123047;23;20021;-77
2023/11/01 05:16:04;;;;;;;0.00;0.00;;;;;;;4.60;75.72;99690.56;6120421;23;20093;-76
2023/11/01 05:18:31;;;;;;;0.00;0.00;;;;;;;4.57;75.89;99688.03;6122901;23;20022;-76
2023/11/01 05:20:58;;;;;;;0.00;0.00;;;;;;;4.56;76.02;99694.09;6120985;23;20018;-75
2023/11/01 05:23:25;;;;;;;0.00;0.00;;;;;;;4.55;75.87;99695.78;6123406;23;20029;-76
2023/11/01 05:25:52;;;;;;;0.05;0.00;;;;;;;4.53;75.93;99700.16;6119339;23;20033;-75
2023/11/01 05:28:19;;;;;;;0.00;0.00;;;;;;;4.51;75.80;99702.75;6122520;23;20100;-76
2023/11/01 05:30:46;;;;;;;0.00;0.00;;;;;;;4.50;75.82;99705.34;6118948;23;20053;-78
2023/11/01 05:33:15;;;;;;;1.83;0.00;;;;;;;4.48;75.81;99714.84;6119995;23;20022;-76
2023/11/01 05:35:42;;;;;;;0.00;0.00;;;;;;;4.47;75.91;99714.00;6121021;23;20028;-75
2023/11/01 05:38:09;;;;;;;0.00;0.00;;;;;;;4.42;75.92;99714.91;6123546;23;20026;-76
2023/11/01 05:40:36;;;;;;;0.00;0.00;;;;;;;4.44;76.01;99726.97;6117823;23;20053;-75
2023/11/01 05:43:04;;;;;;;0.00;0.00;;;;;;;4.43;76.08;99732.13;6120477;23;20018;-76
2023/11/01 05:45:31;;;;;;;0.00;0.00;;;;;;;4.40;76.01;99729.59;6119268;23;20018;-76
2023/11/01 05:47:59;;;;;;;0.00;0.00;;;;;;;4.42;76.03;99735.59;6121500;23;20104;-76
2023/11/01 05:50:28;;;;;;;0.00;0.00;;;;;;;4.41;76.23;99734.75;6119898;23;20473;-76
2023/11/01 05:52:56;;;;;;;0.70;0.00;;;;;;;4.40;76.25;99745.94;6121547;23;20030;-73
2023/11/01 05:55:24;;;;;;;0.00;0.00;;;;;;;4.39;76.19;99751.16;6120049;23;20022;-73
2023/11/01 05:57:51;;;;;;;0.00;0.00;;;;;;;4.39;76.12;99749.41;6118352;23;20049;-73
2023/11/01 06:00:18;;;;;;;0.00;0.00;;;;;;;4.39;76.30;99756.31;6118356;23;20504;-73
2023/11/01 06:02:46;;;;;;;0.00;0.00;;;;;;;4.37;76.29;99763.22;6117140;23;20018;-73
2023/11/01 06:05:14;;;;;;;0.00;0.00;;;;;;;4.34;76.34;99758.09;6118058;23;20018;-73
2023/11/01 06:07:43;;;;;;;0.03;0.00;;;;;;;4.37;76.37;99771.84;6117900;23;20021;-72
2023/11/01 06:10:10;;;;;;;0.00;0.00;;;;;;;4.34;76.08;99758.94;6117565;23;20093;-72
2023/11/01 06:12:37;;;;;;;0.00;0.00;;;;;;;4.33;76.41;99769.31;6117032;23;20028;-72
2023/11/01 06:15:05;;;;;;;0.00;0.00;;;;;;;4.35;76.60;99777.88;6120009;23;20381;-73
2023/11/01 06:17:32;;;;;;;0.10;0.00;;;;;;;4.35;76.47;99772.72;6119011;23;20018;-73
2023/11/01 06:20:00;;;;;;;0.00;0.00;;;;;;;4.33;76.30;99772.75;6119434;23;20026;-73
2023/11/01 06:22:27;;;;;;;0.00;0.00;;;;;;;4.31;76.30;99778.81;6118301;23;20026;-78
2023/11/01 06:24:56;;;;;;;0.00;0.00;;;;;;;4.31;76.64;99781.38;6121285;23;20462;-72
2023/11/01 06:27:23;;;;;;;0.10;0.10;;;;;;;4.29;76.58;99787.41;6118556;23;20029;-73
2023/11/01 06:29:49;;;;;;;0.00;0.00;;;;;;;4.29;76.64;99787.41;6120348;23;20022;-73
2023/11/01 06:32:16;;;;;;;0.10;0.10;;;;;;;4.26;76.60;99787.44;6119109;23;20026;-73
2023/11/01 06:34:43;;;;;;;0.10;0.10;;;;;;;4.29;76.71;99783.97;6117922;23;20359;-73
2023/11/01 06:37:10;;;;;;;0.10;0.10;;;;;;;4.28;76.63;99795.19;6116167;23;21459;-73
2023/11/01 06:39:37;;;;;;;0.32;0.10;;;;;;;4.28;76.77;99803.81;6118825;23;20028;-73
2023/11/01 06:42:06;;;;;;;1.23;0.10;;;;;;;4.28;76.65;99797.78;6119536;23;20026;-73
2023/11/01 06:44:33;;;;;;;0.20;0.10;;;;;;;4.27;76.59;99796.94;6118588;23;20105;-73
2023/11/01 06:47:00;;;;;;;1.95;0.10;;;;;;;4.27;76.55;99804.69;6115606;23;20024;-73
2023/11/01 06:49:27;;;;;;;10.85;5.50;;;;;;;4.28;76.79;99813.28;6120144;23;20022;-73
2023/11/01 06:51:54;;;;;;;1.08;0.50;;;;;;;4.27;76.88;99809.84;6117724;23;20096;-73
2023/11/01 06:54:21;;;;;;;2.15;0.10;;;;;;;4.26;76.91;99813.28;6117357;23;20054;-72
2023/11/01 06:56:48;;;;;;;0.20;0.10;;;;;;;4.27;76.90;99811.59;6118462;23;20017;-73
2023/11/01 06:59:16;;;;;;;0.08;0.08;;;;;;;4.26;76.85;99808.13;6117292;23;20026;-73
2023/11/01 07:01:43;;;;;;;0.00;0.00;;;;;;;4.26;76.96;99818.47;6113243;23;20032;-73
2023/11/01 07:04:11;;;;;;;1.10;0.10;;;;;;;4.27;76.87;99822.78;6118862;23;20125;-72
2023/11/01 07:06:38;;;;;;;0.10;0.10;;;;;;;4.26;77.07;99826.22;6116459;23;20060;-71
2023/11/01 07:09:05;;;;;;;3.00;0.20;;;;;;;4.26;77.04;99826.22;6116813;23;20409;-71
2023/11/01 07:11:32;;;;;;;0.00;0.00;;;;;;;4.26;77.07;99825.34;6116268;23;20026;-71
2023/11/01 07:13:59;;;;;;;0.10;0.00;;;;;;;4.25;77.05;99832.25;6118317;23;20022;-72
2023/11/01 07:16:28;;;;;;;0.82;0.03;;;;;;;4.24;76.88;99830.56;6116891;23;20777;-71
2023/11/01 07:18:55;;;;;;;0.00;0.00;;;;;;;4.25;77.04;99832.25;6115956;23;20026;-72
2023/11/01 07:21:22;;;;;;;0.00;0.00;;;;;;;4.25;77.03;99836.59;6118629;23;20022;-72
2023/11/01 07:23:49;;;;;;;0.20;0.00;;;;;;;4.25;77.12;99829.69;6116746;23;20096;-68
2023/11/01 07:26:16;;;;;;;0.00;0.00;;;;;;;4.26;76.95;99831.38;6116880;23;20026;-68
2023/11/01 07:28:44;;;;;;;0.85;0.10;;;;;;;4.27;77.20;99837.44;6115437;23;20026;-68
2023/11/01 07:31:11;;;;;;;0.10;0.10;;;;;;;4.28;77.00;99841.72;6116989;23;20033;-68
2023/11/01 07:33:40;;;;;;;0.00;0.00;;;;;;;4.26;76.94;99833.97;6116912;23;20018;-68
2023/11/01 07:36:08;;;;;;;0.00;0.00;;;;;;;4.27;77.01;99847.78;6117015;23;20057;-68
2023/11/01 07:38:35;;;;;;;0.13;0.10;;;;;;;4.28;77.09;99846.91;6117352;23;20085;-68
2023/11/01 07:41:02;;;;;;;0.65;0.10;;;;;;;4.26;77.07;99849.47;6116707;23;20048;-68
2023/11/01 07:43:29;;;;;;;0.10;0.00;;;;;;;4.25;77.17;99852.94;6116091;23;20064;-68
2023/11/01 07:45:56;;;;;;;0.13;0.05;;;;;;;4.25;77.05;99855.53;6116470;23;20018;-68
2023/11/01 07:48:23;;;;;;;0.10;0.00;;;;;;;4.26;77.24;99861.56;6114387;23;20934;-68
2023/11/01 07:50:51;;;;;;;0.13;0.00;;;;;;;4.26;77.24;99853.81;6117089;23;20354;-68
2023/11/01 07:53:18;;;;;;;0.32;0.05;;;;;;;4.26;77.31;99856.38;6115282;23;20028;-69
2023/11/01 07:55:45;;;;;;;0.15;0.10;;;;;;;4.27;77.34;99866.72;6114470;23;20146;-69
2023/11/01 07:58:12;;;;;;;0.10;0.10;;;;;;;4.28;77.32;99859.81;6114567;23;20026;-69
2023/11/01 08:00:39;;;;;;;0.20;0.10;;;;;;;4.27;77.39;99869.31;6113615;23;20025;-68
2023/11/01 08:03:06;;;;;;;0.20;0.10;;;;;;;4.29;77.24;99874.44;6104119;23;20033;-69
2023/11/01 08:05:33;;;;;;;0.13;0.10;;;;;;;4.31;77.53;99879.63;6114498;23;20022;-68
2023/11/01 08:08:01;;;;;;;1.17;0.10;;;;;;;4.31;77.30;99877.91;6108487;23;20022;-69
2023/11/01 08:10:28;;;;;;;1.60;0.00;;;;;;;4.34;77.48;99884.78;6113217;23;20028;-69
2023/11/01 08:12:54;;;;;;;0.10;0.08;;;;;;;4.34;77.53;99879.59;6115796;23;20021;-72
2023/11/01 08:15:21;;;;;;;0.00;0.00;;;;;;;4.33;77.58;99885.66;6118064;23;20026;-74
2023/11/01 08:17:48;;;;;;;2.80;1.42;;;;;;;4.35;77.49;99894.22;6118474;23;20702;-74
2023/11/01 08:20:15;;;;;;;1.02;0.10;;;;;;;4.36;77.42;99899.41;6118114;23;20036;-74
2023/11/01 08:22:42;;;;;;;0.10;0.08;;;;;;;4.36;77.49;99898.56;6118498;23;20026;-73
2023/11/01 08:25:11;;;;;;;0.00;0.00;;;;;;;4.37;77.52;99895.09;6118871;23;20026;-73
2023/11/01 08:27:38;;;;;;;0.00;0.00;;;;;;;4.36;77.51;99893.38;6119940;23;20022;-75
2023/11/01 08:30:06;;;;;;;0.10;0.00;;;;;;;4.36;77.27;99896.81;6119985;23;20022;-75
2023/11/01 08:32:33;;;;;;;3.70;0.30;;;;;;;4.37;77.28;99905.44;6116457;23;20033;-72
2023/11/01 08:35:00;;;;;;;5.13;3.63;;;;;;;4.36;77.39;99909.75;6120173;23;20029;-72
2023/11/01 08:37:26;;;;;;;4.40;2.00;;;;;;;4.38;77.40;99912.31;6120062;23;20018;-72
2023/11/01 08:39:53;;;;;;;0.88;0.80;;;;;;;4.38;77.62;99909.72;6120179;23;20475;-72
2023/11/01 08:42:22;;;;;;;1.02;0.55;;;;;;;4.38;77.45;99915.75;6119985;23;20025;-72
2023/11/01 08:44:48;;;;;;;0.10;0.10;;;;;;;4.39;77.50;99921.81;6119766;23;20018;-72
2023/11/01 08:47:33;;;;;;;0.13;0.10;;;;;;;4.40;77.35;99920.94;6120324;23;20018;-72
2023/11/01 08:50:00;;;;;;;0.30;0.10;;;;;;;4.39;77.35;99927.81;6120421;23;20030;-72
2023/11/01 08:52:28;;;;;;;0.73;0.10;;;;;;;4.41;77.12;99927.81;6120317;23;20028;-72
2023/11/01 08:54:57;;;;;;;0.20;0.10;;;;;;;4.40;77.11;99932.13;6120129;23;20024;-72
2023/11/01 08:57:25;;;;;;;0.30;0.20;;;;;;;4.41;77.24;99940.72;6120305;23;20022;-72
2023/11/01 08:59:52;;;;;;;4.07;0.95;;;;;;;4.42;77.28;99945.06;6120557;23;20469;-72
2023/11/01 09:02:19;;;;;;;0.55;0.50;;;;;;;4.43;77.44;99954.50;6121715;23;20025;-72
2023/11/01 09:04:47;;;;;;;6.88;3.63;;;;;;;4.44;77.50;99959.69;6122030;23;20497;-72
2023/11/01 09:07:14;;;;;;;1.92;0.60;;;;;;;4.45;77.24;99952.78;6121443;23;20022;-72
2023/11/01 09:09:40;;;;;;;0.32;0.25;;;;;;;4.45;77.29;99960.53;6121642;23;20026;-72
2023/11/01 09:12:08;;;;;;;2.85;0.20;;;;;;;4.46;77.38;99965.69;6121292;23;20093;-71
2023/11/01 09:14:37;;;;;;;0.20;0.10;;;;;;;4.47;77.38;99971.75;6121533;23;20473;-75
2023/11/01 09:17:04;;;;;;;0.17;0.10;;;;;;;4.46;77.39;99970.00;6121252;23;20022;-73
2023/11/01 09:19:31;;;;;;;0.77;0.10;;;;;;;4.46;77.23;99975.19;6121750;23;20446;-71
2023/11/01 09:21:58;;;;;;;0.70;0.20;;;;;;;4.48;77.34;99976.03;6121323;23;20032;-73
2023/11/01 09:24:25;;;;;;;0.22;0.10;;;;;;;4.46;77.46;99973.44;6121419;23;20018;-72
2023/11/01 09:26:52;;;;;;;0.88;0.13;;;;;;;4.49;77.38;99983.78;6121908;23;20025;-73
2023/11/01 09:29:18;;;;;;;0.20;0.10;;;;;;;4.50;77.44;99989.81;6121218;23;20461;-72
2023/11/01 09:31:47;;;;;;;0.08;0.00;;;;;;;4.52;77.60;99988.06;6121484;23;20022;-73
2023/11/01 09:34:14;;;;;;;0.10;0.10;;;;;;;4.53;77.35;99987.22;6121373;23;20022;-72
2023/11/01 09:36:41;;;;;;;0.10;0.03;;;;;;;4.54;77.40;99983.75;6121382;23;20022;-72
2023/11/01 09:39:08;;;;;;;0.00;0.00;;;;;;;4.55;77.33;99988.03;6121360;23;20025;-73
2023/11/01 09:41:41;;;;;;;0.25;0.00;;;;;;;4.56;77.39;99991.50;6120993;23;20017;-74
2023/11/01 09:44:09;;;;;;;0.10;0.10;;;;;;;4.56;77.28;99994.97;6122126;23;20399;-74
2023/11/01 09:46:36;;;;;;;0.22;0.00;;;;;;;4.54;77.31;99991.50;6121914;23;20018;-74
2023/11/01 09:49:06;;;;;;;0.00;0.00;;;;;;;4.56;77.09;100002.72;6121849;23;20018;-73
2023/11/01 09:51:33;;;;;;;0.47;0.10;;;;;;;4.55;77.00;100003.56;6121558;23;20030;-73
2023/11/01 09:54:00;;;;;;;1.15;0.17;;;;;;;4.55;77.04;100006.16;6121784;23;20061;-74
2023/11/01 09:56:32;;;;;;;0.20;0.10;;;;;;;4.54;77.04;100017.38;6121676;23;20262;-74
2023/11/01 09:59:00;;;;;;;0.10;0.00;;;;;;;4.54;76.95;100011.34;6121127;23;20022;-73
2023/11/01 10:01:28;;;;;;;0.08;0.00;;;;;;;4.54;76.90;100014.78;6121066;23;20022;-73
2023/11/01 10:03:56;;;;;;;2.17;0.03;;;;;;;4.55;77.16;100013.06;6121437;23;20093;-74
2023/11/01 10:06:27;;;;;;;0.10;0.10;;;;;;;4.55;76.94;100019.09;6121199;23;20368;-73
2023/11/01 10:08:54;;;;;;;0.20;0.10;;;;;;;4.55;76.97;100029.44;6121302;23;20026;-74
2023/11/01 10:11:22;;;;;;;19.30;1.05;;;;;;;4.54;77.01;100016.53;6120982;23;20022;-75
2023/11/01 10:13:49;;;;;;;0.60;0.30;;;;;;;4.56;77.02;100030.31;6121516;23;20330;-76
2023/11/01 10:16:16;;;;;;;0.20;0.17;;;;;;;4.55;76.80;100034.59;6121177;23;20018;-73
2023/11/01 10:18:43;;;;;;;0.15;0.10;;;;;;;4.54;76.83;100038.06;6121088;23;20021;-74
2023/11/01 10:21:11;;;;;;;0.20;0.10;;;;;;;4.54;76.71;100035.47;6121471;23;20021;-74
2023/11/01 10:23:39;;;;;;;0.20;0.10;;;;;;;4.54;76.57;100038.06;6121170;23;20018;-74
2023/11/01 10:26:06;;;;;;;0.68;0.15;;;;;;;4.53;76.58;100031.19;6121291;23;20084;-74
2023/11/01 10:28:35;;;;;;;0.10;0.00;;;;;;;4.53;76.52;100036.34;6121105;23;20030;-74
2023/11/01 10:31:03;;;;;;;0.10;0.05;;;;;;;4.51;76.39;100038.94;6121395;23;20398;-74
2023/11/01 10:33:32;;;;;;;0.00;0.00;;;;;;;4.49;76.48;100035.50;6121352;23;20024;-74
2023/11/01 10:36:00;;;;;;;0.20;0.15;;;;;;;4.48;76.31;100053.63;6121105;23;20018;-74
2023/11/01 10:38:28;;;;;;;314.50;169.75;;;;;;;4.46;76.50;100056.19;6120952;23;20374;-74
2023/11/01 10:40:58;;;;;;;6.88;2.35;;;;;;;4.45;76.25;100053.66;6121124;23;20104;-74
2023/11/01 10:43:27;;;;;;;11.88;0.98;;;;;;;4.46;76.27;100056.19;6121503;23;20022;-74
2023/11/01 10:45:56;;;;;;;6.82;1.05;;;;;;;4.45;76.35;100057.09;6121421;23;20022;-75
2023/11/01 10:48:24;;;;;;;1.23;0.50;;;;;;;4.43;76.38;100056.22;6121815;23;20089;-75
2023/11/01 10:50:52;;;;;;;5.40;0.68;;;;;;;4.45;76.42;100063.97;6121760;23;20353;-75
2023/11/01 10:53:22;;;;;;;0.75;0.30;;;;;;;4.44;76.42;100065.72;6121230;23;20022;-70
2023/11/01 10:55:51;;;;;;;0.38;0.20;;;;;;;4.44;76.67;100060.53;6120769;23;20018;-70
2023/11/01 10:58:23;;;;;;;3.08;0.20;;;;;;;4.43;76.53;100063.97;6120473;23;20029;-70
2023/11/01 11:00:56;;;;;;;0.45;0.10;;;;;;;4.46;76.54;100065.69;6120832;23;20017;-70
2023/11/01 11:03:32;;;;;;;0.65;0.10;;;;;;;4.46;76.43;100060.53;6120751;23;20345;-70
2023/11/01 11:06:05;;;;;;;0.35;0.10;;;;;;;4.46;76.47;100065.69;6121014;23;20081;-70
2023/11/01 11:08:32;;;;;;;0.85;0.20;;;;;;;4.47;76.31;100067.44;6120627;23;20018;-69
2023/11/01 11:11:17;;;;;;;0.10;0.03;;;;;;;4.47;76.25;100068.28;6120419;23;20029;-69
2023/11/01 11:13:49;;;;;;;0.10;0.10;;;;;;;4.48;76.18;100069.13;6120132;23;20803;-69
2023/11/01 11:16:20;;;;;;;0.13;0.10;;;;;;;4.48;76.00;100066.56;6120501;23;20018;-70
2023/11/01 11:18:54;;;;;;;0.43;0.10;;;;;;;4.45;75.91;100069.16;6120514;23;20370;-69
2023/11/01 11:22:02;;;;;;;0.10;0.00;;;;;;;4.46;75.85;100076.88;6119832;23;20018;-69
2023/11/01 11:24:57;;;;;;;0.20;0.08;;;;;;;4.44;75.92;100081.22;6115889;23;20084;-69
2023/11/01 11:27:49;;;;;;;0.05;0.00;;;;;;;4.44;76.01;100078.66;6120317;23;20054;-69
2023/11/01 11:30:57;;;;;;;2.00;0.10;;;;;;;4.43;75.72;100084.66;6120516;23;20022;-70
2023/11/01 11:33:24;;;;;;;0.03;0.03;;;;;;;4.42;75.83;100079.53;6119869;23;20017;-70
2023/11/01 11:36:09;;;;;;;0.10;0.00;;;;;;;4.42;75.70;100076.94;6121214;23;20028;-69
2023/11/01 11:38:38;;;;;;;0.20;0.10;;;;;;;4.40;75.71;100081.25;6121334;23;20018;-69
2023/11/01 11:41:12;;;;;;;0.10;0.10;;;;;;;4.41;75.66;100088.13;6121406;23;20032;-69
2023/11/01 11:44:07;;;;;;;0.85;0.10;;;;;;;4.41;75.66;100088.13;6120964;23;20096;-69